sensor_id;sensor_type;location;lat;lon;timestamp;pressure;altitude;pressure_sealevel;temperature;humidity
51123;BME280;37162;41.724;13.346;2023-09-19T00:00:42;96893.56;;;25.04;63.47
51123;BME280;37162;41.724;13.346;2023-09-19T00:03:09;96881.88;;;25.03;63.41
51123;BME280;37162;41.724;13.346;2023-09-19T00:05:36;96874.81;;;24.97;63.43
51123;BME280;37162;41.724;13.346;2023-09-19T00:08:04;96886.47;;;25.03;63.48
51123;BME280;37162;41.724;13.346;2023-09-19T00:10:30;96881.03;;;25.03;63.22
51123;BME280;37162;41.724;13.346;2023-09-19T00:12:57;96879.97;;;25.04;63.39
51123;BME280;37162;41.724;13.346;2023-09-19T00:15:26;96872.88;;;25.03;63.69
51123;BME280;37162;41.724;13.346;2023-09-19T00:17:54;96867.44;;;25.03;63.43
51123;BME280;37162;41.724;13.346;2023-09-19T00:20:20;96871.00;;;25.03;63.50
51123;BME280;37162;41.724;13.346;2023-09-19T00:22:48;96868.28;;;25.03;63.41
51123;BME280;37162;41.724;13.346;2023-09-19T00:25:17;96872.88;;;25.03;63.28
51123;BME280;37162;41.724;13.346;2023-09-19T00:27:43;96872.06;;;25.02;63.28
51123;BME280;37162;41.724;13.346;2023-09-19T00:30:12;96863.09;;;25.02;63.21
51123;BME280;37162;41.724;13.346;2023-09-19T00:32:45;96864.22;;;25.01;63.01
51123;BME280;37162;41.724;13.346;2023-09-19T00:35:13;96851.16;;;24.97;63.37
51123;BME280;37162;41.724;13.346;2023-09-19T00:37:40;96845.19;;;25.01;63.40
51123;BME280;37162;41.724;13.346;2023-09-19T00:40:10;96848.72;;;25.01;63.32
51123;BME280;37162;41.724;13.346;2023-09-19T00:42:41;96853.63;;;24.99;63.15
51123;BME280;37162;41.724;13.346;2023-09-19T00:45:08;96842.47;;;25.01;63.14
51123;BME280;37162;41.724;13.346;2023-09-19T00:47:36;96845.19;;;25.01;63.05
51123;BME280;37162;41.724;13.346;2023-09-19T00:50:04;96842.16;;;25.02;63.21
51123;BME280;37162;41.724;13.346;2023-09-19T00:52:33;96833.22;;;25.02;63.06
51123;BME280;37162;41.724;13.346;2023-09-19T00:54:58;96832.41;;;25.01;63.12
51123;BME280;37162;41.724;13.346;2023-09-19T00:57:25;96840.56;;;25.01;63.07
51123;BME280;37162;41.724;13.346;2023-09-19T00:59:53;96835.13;;;25.01;63.02
51123;BME280;37162;41.724;13.346;2023-09-19T01:02:20;96835.41;;;24.99;62.87
51123;BME280;37162;41.724;13.346;2023-09-19T01:04:46;96833.78;;;24.98;62.90
51123;BME280;37162;41.724;13.346;2023-09-19T01:07:12;96835.66;;;24.98;63.00
51123;BME280;37162;41.724;13.346;2023-09-19T01:09:40;96836.50;;;24.98;63.19
51123;BME280;37162;41.724;13.346;2023-09-19T01:12:06;96832.16;;;24.97;63.02
51123;BME280;37162;41.724;13.346;2023-09-19T01:17:27;96842.75;;;24.99;63.31
51123;BME280;37162;41.724;13.346;2023-09-19T01:29:01;96833.25;;;24.96;63.38
51123;BME280;37162;41.724;13.346;2023-09-19T01:31:34;96833.53;;;24.95;62.92
51123;BME280;37162;41.724;13.346;2023-09-19T01:34:03;96837.06;;;24.95;63.02
51123;BME280;37162;41.724;13.346;2023-09-19T01:36:35;96834.34;;;24.95;62.92
51123;BME280;37162;41.724;13.346;2023-09-19T01:39:10;96831.13;;;24.88;62.95
51123;BME280;37162;41.724;13.346;2023-09-19T01:41:51;96832.72;;;24.94;62.87
51123;BME280;37162;41.724;13.346;2023-09-19T01:44:25;96837.34;;;24.94;62.73
51123;BME280;37162;41.724;13.346;2023-09-19T01:46:55;96831.09;;;24.93;62.61
51123;BME280;37162;41.724;13.346;2023-09-19T01:52:40;96831.91;;;24.94;62.92
51123;BME280;37162;41.724;13.346;2023-09-19T01:55:09;96831.91;;;24.94;62.88
51123;BME280;37162;41.724;13.346;2023-09-19T01:57:42;96825.38;;;24.95;62.75
51123;BME280;37162;41.724;13.346;2023-09-19T02:00:12;96830.00;;;24.94;62.64
51123;BME280;37162;41.724;13.346;2023-09-19T02:02:42;96826.22;;;24.90;62.46
51123;BME280;37162;41.724;13.346;2023-09-19T02:05:09;96829.47;;;24.92;62.50
51123;BME280;37162;41.724;13.346;2023-09-19T02:07:35;96823.78;;;24.94;62.92
51123;BME280;37162;41.724;13.346;2023-09-19T02:10:04;96836.25;;;24.95;62.69
51123;BME280;37162;41.724;13.346;2023-09-19T02:12:31;96835.72;;;24.93;62.94
51123;BME280;37162;41.724;13.346;2023-09-19T02:14:58;96830.00;;;24.94;63.02
51123;BME280;37162;41.724;13.346;2023-09-19T02:17:24;96828.38;;;24.93;62.87
51123;BME280;37162;41.724;13.346;2023-09-19T02:19:54;96831.09;;;24.93;62.99
51123;BME280;37162;41.724;13.346;2023-09-19T02:22:21;96829.47;;;24.92;62.94
51123;BME280;37162;41.724;13.346;2023-09-19T02:24:48;96836.53;;;24.93;62.91
51123;BME280;37162;41.724;13.346;2023-09-19T02:27:13;96832.19;;;24.92;62.71
51123;BME280;37162;41.724;13.346;2023-09-19T02:29:41;96833.00;;;24.93;62.83
51123;BME280;37162;41.724;13.346;2023-09-19T02:32:07;96827.56;;;24.93;62.67
51123;BME280;37162;41.724;13.346;2023-09-19T02:34:32;96823.22;;;24.92;62.64
51123;BME280;37162;41.724;13.346;2023-09-19T02:36:58;96828.66;;;24.92;62.59
51123;BME280;37162;41.724;13.346;2023-09-19T02:39:23;96820.78;;;24.90;62.63
51123;BME280;37162;41.724;13.346;2023-09-19T02:41:49;96828.94;;;24.90;62.52
51123;BME280;37162;41.724;13.346;2023-09-19T02:44:14;96816.47;;;24.89;62.49
51123;BME280;37162;41.724;13.346;2023-09-19T02:46:40;96817.28;;;24.90;62.39
51123;BME280;37162;41.724;13.346;2023-09-19T02:49:05;96830.84;;;24.90;62.57
51123;BME280;37162;41.724;13.346;2023-09-19T02:51:31;96824.63;;;24.89;62.57
51123;BME280;37162;41.724;13.346;2023-09-19T02:53:59;96812.09;;;24.88;62.34
51123;BME280;37162;41.724;13.346;2023-09-19T02:56:24;96809.13;;;24.90;62.37
51123;BME280;37162;41.724;13.346;2023-09-19T02:58:50;96817.28;;;24.90;62.37
51123;BME280;37162;41.724;13.346;2023-09-19T03:01:16;96822.69;;;24.90;62.58
51123;BME280;37162;41.724;13.346;2023-09-19T03:03:43;96826.22;;;24.90;62.66
51123;BME280;37162;41.724;13.346;2023-09-19T03:06:08;96828.16;;;24.90;62.23
51123;BME280;37162;41.724;13.346;2023-09-19T03:08:35;96823.78;;;24.89;62.16
51123;BME280;37162;41.724;13.346;2023-09-19T03:11:03;96828.16;;;24.90;62.18
51123;BME280;37162;41.724;13.346;2023-09-19T03:13:28;96829.22;;;24.89;62.23
51123;BME280;37162;41.724;13.346;2023-09-19T03:15:56;96825.69;;;24.88;62.13
51123;BME280;37162;41.724;13.346;2023-09-19T03:18:24;96829.22;;;24.89;62.43
51123;BME280;37162;41.724;13.346;2023-09-19T03:20:57;96829.22;;;24.89;62.37
51123;BME280;37162;41.724;13.346;2023-09-19T03:23:27;96831.13;;;24.88;62.50
51123;BME280;37162;41.724;13.346;2023-09-19T03:25:54;96824.06;;;24.87;62.53
51123;BME280;37162;41.724;13.346;2023-09-19T03:28:19;96821.34;;;24.87;62.49
51123;BME280;37162;41.724;13.346;2023-09-19T03:30:57;96828.41;;;24.88;62.49
51123;BME280;37162;41.724;13.346;2023-09-19T03:33:23;96816.72;;;24.88;62.33
51123;BME280;37162;41.724;13.346;2023-09-19T03:35:52;96820.25;;;24.88;62.32
51123;BME280;37162;41.724;13.346;2023-09-19T03:38:18;96813.19;;;24.87;62.37
51123;BME280;37162;41.724;13.346;2023-09-19T03:40:44;96812.09;;;24.88;62.37
51123;BME280;37162;41.724;13.346;2023-09-19T03:43:10;96818.63;;;24.87;62.21
51123;BME280;37162;41.724;13.346;2023-09-19T03:45:35;96817.81;;;24.87;62.25
51123;BME280;37162;41.724;13.346;2023-09-19T03:48:01;96810.78;;;24.86;62.26
51123;BME280;37162;41.724;13.346;2023-09-19T03:50:26;96801.25;;;24.83;62.16
51123;BME280;37162;41.724;13.346;2023-09-19T03:52:57;96795.56;;;24.85;62.24
51123;BME280;37162;41.724;13.346;2023-09-19T03:55:22;96805.63;;;24.84;62.16
51123;BME280;37162;41.724;13.346;2023-09-19T03:57:48;96802.41;;;24.77;62.28
51123;BME280;37162;41.724;13.346;2023-09-19T04:00:15;96807.50;;;24.84;62.03
51123;BME280;37162;41.724;13.346;2023-09-19T04:02:43;96816.50;;;24.84;61.90
51123;BME280;37162;41.724;13.346;2023-09-19T04:05:09;96806.69;;;24.83;61.92
51123;BME280;37162;41.724;13.346;2023-09-19T04:07:35;96814.59;;;24.85;61.92
51123;BME280;37162;41.724;13.346;2023-09-19T04:10:01;96817.31;;;24.85;61.90
51123;BME280;37162;41.724;13.346;2023-09-19T04:12:26;96819.22;;;24.84;61.92
51123;BME280;37162;41.724;13.346;2023-09-19T04:14:52;96811.06;;;24.84;61.93
51123;BME280;37162;41.724;13.346;2023-09-19T04:17:17;96815.66;;;24.84;62.02
51123;BME280;37162;41.724;13.346;2023-09-19T04:19:43;96807.84;;;24.77;61.90
51123;BME280;37162;41.724;13.346;2023-09-19T04:22:10;96825.72;;;24.83;61.84
51123;BME280;37162;41.724;13.346;2023-09-19T04:24:36;96822.19;;;24.83;62.12
51123;BME280;37162;41.724;13.346;2023-09-19T04:27:03;96811.38;;;24.78;61.96
51123;BME280;37162;41.724;13.346;2023-09-19T04:29:29;96824.09;;;24.82;61.92
51123;BME280;37162;41.724;13.346;2023-09-19T04:31:54;96813.56;;;24.76;61.92
51123;BME280;37162;41.724;13.346;2023-09-19T04:34:20;96826.00;;;24.82;61.98
51123;BME280;37162;41.724;13.346;2023-09-19T04:36:45;96817.88;;;24.82;61.98
51123;BME280;37162;41.724;13.346;2023-09-19T04:39:10;96825.22;;;24.81;61.93
51123;BME280;37162;41.724;13.346;2023-09-19T04:41:37;96824.41;;;24.81;61.83
51123;BME280;37162;41.724;13.346;2023-09-19T04:44:07;96819.78;;;24.81;61.68
51123;BME280;37162;41.724;13.346;2023-09-19T04:46:36;96818.97;;;24.81;61.79
51123;BME280;37162;41.724;13.346;2023-09-19T04:49:01;96829.03;;;24.80;61.74
51123;BME280;37162;41.724;13.346;2023-09-19T04:51:27;96829.03;;;24.80;61.77
51123;BME280;37162;41.724;13.346;2023-09-19T04:53:58;96828.22;;;24.80;61.81
51123;BME280;37162;41.724;13.346;2023-09-19T04:56:23;96824.66;;;24.79;61.95
51123;BME280;37162;41.724;13.346;2023-09-19T04:58:49;96831.19;;;24.78;61.83
51123;BME280;37162;41.724;13.346;2023-09-19T05:01:14;96831.19;;;24.78;61.51
51123;BME280;37162;41.724;13.346;2023-09-19T05:03:40;96833.09;;;24.78;61.79
51123;BME280;37162;41.724;13.346;2023-09-19T05:06:06;96832.28;;;24.77;61.52
51123;BME280;37162;41.724;13.346;2023-09-19T05:08:31;96836.91;;;24.77;61.08
51123;BME280;37162;41.724;13.346;2023-09-19T05:10:57;96834.19;;;24.77;61.38
51123;BME280;37162;41.724;13.346;2023-09-19T05:13:22;96838.84;;;24.76;61.17
51123;BME280;37162;41.724;13.346;2023-09-19T05:15:49;96841.59;;;24.71;61.19
51123;BME280;37162;41.724;13.346;2023-09-19T05:18:15;96844.28;;;24.71;60.96
51123;BME280;37162;41.724;13.346;2023-09-19T05:20:41;96849.97;;;24.74;60.92
51123;BME280;37162;41.724;13.346;2023-09-19T05:23:07;96836.44;;;24.64;60.58
51123;BME280;37162;41.724;13.346;2023-09-19T05:25:35;96845.09;;;24.71;60.48
51123;BME280;37162;41.724;13.346;2023-09-19T05:28:09;96844.03;;;24.67;60.52
51123;BME280;37162;41.724;13.346;2023-09-19T05:30:36;96858.94;;;24.70;60.56
51123;BME280;37162;41.724;13.346;2023-09-19T05:33:02;96870.91;;;24.69;60.61
51123;BME280;37162;41.724;13.346;2023-09-19T05:35:29;96872.53;;;24.70;60.69
51123;BME280;37162;41.724;13.346;2023-09-19T05:37:54;96877.44;;;24.68;60.81
51123;BME280;37162;41.724;13.346;2023-09-19T05:40:21;96877.16;;;24.69;61.11
51123;BME280;37162;41.724;13.346;2023-09-19T05:42:47;96871.72;;;24.69;60.69
51123;BME280;37162;41.724;13.346;2023-09-19T05:45:13;96881.53;;;24.70;61.16
51123;BME280;37162;41.724;13.346;2023-09-19T05:47:42;96876.66;;;24.67;61.33
51123;BME280;37162;41.724;13.346;2023-09-19T05:50:12;96873.63;;;24.69;60.92
51123;BME280;37162;41.724;13.346;2023-09-19T05:52:38;96868.19;;;24.69;60.76
51123;BME280;37162;41.724;13.346;2023-09-19T05:55:04;96876.66;;;24.67;60.70
51123;BME280;37162;41.724;13.346;2023-09-19T05:57:32;96862.53;;;24.60;60.69
51123;BME280;37162;41.724;13.346;2023-09-19T05:59:58;96868.50;;;24.67;60.58
51123;BME280;37162;41.724;13.346;2023-09-19T06:02:23;96864.97;;;24.67;60.42
51123;BME280;37162;41.724;13.346;2023-09-19T06:04:48;96864.97;;;24.67;60.68
51123;BME280;37162;41.724;13.346;2023-09-19T06:07:14;96863.34;;;24.66;60.54
51123;BME280;37162;41.724;13.346;2023-09-19T06:09:41;96859.53;;;24.67;60.45
51123;BME280;37162;41.724;13.346;2023-09-19T06:12:07;96864.97;;;24.67;60.70
51123;BME280;37162;41.724;13.346;2023-09-19T06:14:32;96867.69;;;24.67;60.81
51123;BME280;37162;41.724;13.346;2023-09-19T06:16:58;96864.97;;;24.67;60.56
51123;BME280;37162;41.724;13.346;2023-09-19T06:19:25;96862.50;;;24.65;60.42
51123;BME280;37162;41.724;13.346;2023-09-19T06:21:52;96858.97;;;24.65;60.13
51123;BME280;37162;41.724;13.346;2023-09-19T06:24:19;96855.75;;;24.63;59.71
51123;BME280;37162;41.724;13.346;2023-09-19T06:26:45;96863.09;;;24.62;59.58
51123;BME280;37162;41.724;13.346;2023-09-19T06:29:10;96862.53;;;24.60;59.55
51123;BME280;37162;41.724;13.346;2023-09-19T06:31:36;96859.56;;;24.62;59.69
51123;BME280;37162;41.724;13.346;2023-09-19T06:34:03;96858.75;;;24.61;59.72
51123;BME280;37162;41.724;13.346;2023-09-19T06:36:29;96865.00;;;24.62;59.79
51123;BME280;37162;41.724;13.346;2023-09-19T06:38:54;96863.09;;;24.62;59.99
51123;BME280;37162;41.724;13.346;2023-09-19T06:41:20;96863.38;;;24.61;59.28
51123;BME280;37162;41.724;13.346;2023-09-19T06:43:50;96869.63;;;24.61;59.60
51123;BME280;37162;41.724;13.346;2023-09-19T06:46:18;96865.81;;;24.62;59.44
51123;BME280;37162;41.724;13.346;2023-09-19T06:48:44;96866.34;;;24.59;57.68
51123;BME280;37162;41.724;13.346;2023-09-19T06:51:09;96863.13;;;24.57;56.42
51123;BME280;37162;41.724;13.346;2023-09-19T06:53:35;96870.97;;;24.59;55.99
51123;BME280;37162;41.724;13.346;2023-09-19T06:56:02;96869.06;;;24.59;55.23
51123;BME280;37162;41.724;13.346;2023-09-19T06:58:27;96867.72;;;24.62;56.77
51123;BME280;37162;41.724;13.346;2023-09-19T07:00:53;96863.91;;;24.63;56.55
51123;BME280;37162;41.724;13.346;2023-09-19T07:03:19;96868.22;;;24.64;57.21
51123;BME280;37162;41.724;13.346;2023-09-19T07:05:48;96863.88;;;24.68;58.44
51123;BME280;37162;41.724;13.346;2023-09-19T07:08:14;96860.09;;;24.64;58.67
51123;BME280;37162;41.724;13.346;2023-09-19T07:10:41;96869.31;;;24.68;58.92
51123;BME280;37162;41.724;13.346;2023-09-19T07:13:10;96863.91;;;24.63;59.01
51123;BME280;37162;41.724;13.346;2023-09-19T07:15:37;96868.75;;;24.71;59.44
51123;BME280;37162;41.724;13.346;2023-09-19T07:18:07;96875.00;;;24.71;59.20
51123;BME280;37162;41.724;13.346;2023-09-19T07:20:36;96868.75;;;24.71;58.63
51123;BME280;37162;41.724;13.346;2023-09-19T07:23:02;96859.78;;;24.65;59.38
51123;BME280;37162;41.724;13.346;2023-09-19T07:25:28;96874.41;;;24.74;59.52
51123;BME280;37162;41.724;13.346;2023-09-19T07:27:58;96873.59;;;24.74;58.91
51123;BME280;37162;41.724;13.346;2023-09-19T07:30:26;96878.78;;;24.76;58.67
51123;BME280;37162;41.724;13.346;2023-09-19T07:32:52;96861.47;;;24.61;56.70
51123;BME280;37162;41.724;13.346;2023-09-19T07:35:18;96885.28;;;24.74;58.59
51123;BME280;37162;41.724;13.346;2023-09-19T07:37:46;96880.69;;;24.75;59.30
51123;BME280;37162;41.724;13.346;2023-09-19T07:40:18;96875.78;;;24.77;59.78
51123;BME280;37162;41.724;13.346;2023-09-19T07:42:44;96880.91;;;24.79;59.66
51123;BME280;37162;41.724;13.346;2023-09-19T07:45:12;96887.16;;;24.79;59.72
51123;BME280;37162;41.724;13.346;2023-09-19T07:47:45;96889.63;;;24.81;59.65
51123;BME280;37162;41.724;13.346;2023-09-19T07:50:12;96889.63;;;24.81;59.40
51123;BME280;37162;41.724;13.346;2023-09-19T07:52:37;96893.66;;;24.83;59.12
51123;BME280;37162;41.724;13.346;2023-09-19T07:55:05;96890.41;;;24.86;59.24
51123;BME280;37162;41.724;13.346;2023-09-19T07:57:35;96885.28;;;24.80;58.46
51123;BME280;37162;41.724;13.346;2023-09-19T08:00:01;96899.63;;;24.90;60.01
51123;BME280;37162;41.724;13.346;2023-09-19T08:02:29;96912.91;;;24.92;60.30
51123;BME280;37162;41.724;13.346;2023-09-19T08:04:55;96913.72;;;24.92;60.11
51123;BME280;37162;41.724;13.346;2023-09-19T08:07:23;96902.59;;;24.89;57.79
51123;BME280;37162;41.724;13.346;2023-09-19T08:09:49;96903.91;;;24.96;59.90
51123;BME280;37162;41.724;13.346;2023-09-19T08:12:14;96914.78;;;24.96;58.88
51123;BME280;37162;41.724;13.346;2023-09-19T08:14:40;96915.88;;;25.01;59.38
51123;BME280;37162;41.724;13.346;2023-09-19T08:17:08;96917.78;;;25.00;58.41
51123;BME280;37162;41.724;13.346;2023-09-19T08:19:34;96922.06;;;25.06;59.69
51123;BME280;37162;41.724;13.346;2023-09-19T08:22:00;96925.59;;;25.07;57.80
51123;BME280;37162;41.724;13.346;2023-09-19T08:24:29;96918.84;;;25.09;57.50
51123;BME280;37162;41.724;13.346;2023-09-19T08:26:56;96925.03;;;25.15;58.55
51123;BME280;37162;41.724;13.346;2023-09-19T08:29:25;96920.13;;;25.17;58.50
51123;BME280;37162;41.724;13.346;2023-09-19T08:31:54;96916.56;;;25.21;59.56
51123;BME280;37162;41.724;13.346;2023-09-19T08:34:19;96926.38;;;25.22;59.96
51123;BME280;37162;41.724;13.346;2023-09-19T08:36:46;96926.63;;;25.21;59.79
51123;BME280;37162;41.724;13.346;2023-09-19T08:39:13;96920.94;;;25.22;59.94
51123;BME280;37162;41.724;13.346;2023-09-19T08:41:39;96921.78;;;25.18;58.54
51123;BME280;37162;41.724;13.346;2023-09-19T08:44:05;96919.03;;;25.23;59.12
51123;BME280;37162;41.724;13.346;2023-09-19T08:46:33;96914.63;;;25.27;59.95
51123;BME280;37162;41.724;13.346;2023-09-19T08:49:05;96918.97;;;25.28;60.22
51123;BME280;37162;41.724;13.346;2023-09-19T08:51:39;96917.59;;;25.31;59.91
51123;BME280;37162;41.724;13.346;2023-09-19T08:54:07;96916.22;;;25.33;59.83
51123;BME280;37162;41.724;13.346;2023-09-19T08:56:33;96916.75;;;25.35;60.02
51123;BME280;37162;41.724;13.346;2023-09-19T08:59:03;96912.09;;;25.36;59.89
51123;BME280;37162;41.724;13.346;2023-09-19T09:01:35;96908.56;;;25.35;60.02
51123;BME280;37162;41.724;13.346;2023-09-19T09:04:01;96903.38;;;25.39;60.19
51123;BME280;37162;41.724;13.346;2023-09-19T09:06:27;96895.78;;;25.41;60.26
51123;BME280;37162;41.724;13.346;2023-09-19T09:08:54;96899.81;;;25.43;60.34
51123;BME280;37162;41.724;13.346;2023-09-19T09:11:20;96897.09;;;25.43;59.94
51123;BME280;37162;41.724;13.346;2023-09-19T09:13:47;96884.03;;;25.45;60.04
51123;BME280;37162;41.724;13.346;2023-09-19T09:16:13;96887.28;;;25.47;60.03
51123;BME280;37162;41.724;13.346;2023-09-19T09:18:40;96885.06;;;25.49;60.07
51123;BME280;37162;41.724;13.346;2023-09-19T09:21:06;96887.28;;;25.47;60.40
51123;BME280;37162;41.724;13.346;2023-09-19T09:23:32;96881.28;;;25.51;60.01
51123;BME280;37162;41.724;13.346;2023-09-19T09:25:58;96873.63;;;25.53;59.96
51123;BME280;37162;41.724;13.346;2023-09-19T09:28:35;96868.75;;;25.49;60.06
51123;BME280;37162;41.724;13.346;2023-09-19T09:31:02;96873.06;;;25.56;60.23
51123;BME280;37162;41.724;13.346;2023-09-19T09:33:33;96871.66;;;25.58;60.22
51123;BME280;37162;41.724;13.346;2023-09-19T09:35:59;96877.09;;;25.58;60.08
51123;BME280;37162;41.724;13.346;2023-09-19T09:38:29;96874.13;;;25.60;60.02
51123;BME280;37162;41.724;13.346;2023-09-19T09:40:57;96867.56;;;25.61;59.93
51123;BME280;37162;41.724;13.346;2023-09-19T09:43:34;96863.75;;;25.62;60.12
51123;BME280;37162;41.724;13.346;2023-09-19T09:46:16;96852.56;;;25.63;60.21
51123;BME280;37162;41.724;13.346;2023-09-19T09:48:45;96847.41;;;25.62;60.31
51123;BME280;37162;41.724;13.346;2023-09-19T09:51:37;96844.94;;;25.65;60.02
51123;BME280;37162;41.724;13.346;2023-09-19T09:54:15;96845.47;;;25.67;59.88
51123;BME280;37162;41.724;13.346;2023-09-19T09:59:50;96840.56;;;25.69;59.69
51123;BME280;37162;41.724;13.346;2023-09-19T10:02:19;96841.88;;;25.72;59.80
51123;BME280;37162;41.724;13.346;2023-09-19T10:04:55;96842.41;;;25.74;60.09
51123;BME280;37162;41.724;13.346;2023-09-19T10:07:40;96836.72;;;25.76;59.47
51123;BME280;37162;41.724;13.346;2023-09-19T10:10:07;96840.75;;;25.78;59.76
51123;BME280;37162;41.724;13.346;2023-09-19T10:12:43;96846.72;;;25.80;60.04
51123;BME280;37162;41.724;13.346;2023-09-19T10:15:11;96842.91;;;25.81;60.03
51123;BME280;37162;41.724;13.346;2023-09-19T10:17:43;96835.84;;;25.80;59.63
51123;BME280;37162;41.724;13.346;2023-09-19T10:20:12;96830.63;;;25.84;59.78
51123;BME280;37162;41.724;13.346;2023-09-19T10:22:48;96829.34;;;25.76;57.83
51123;BME280;37162;41.724;13.346;2023-09-19T10:25:26;96845.00;;;25.89;59.60
51123;BME280;37162;41.724;13.346;2023-09-19T10:27:54;96844.19;;;25.89;59.45
51123;BME280;37162;41.724;13.346;2023-09-19T10:30:27;96837.94;;;25.88;59.71
51123;BME280;37162;41.724;13.346;2023-09-19T10:33:02;96833.00;;;25.90;59.71
51123;BME280;37162;41.724;13.346;2023-09-19T10:35:29;96820.03;;;25.82;59.55
51123;BME280;37162;41.724;13.346;2023-09-19T10:37:57;96829.78;;;25.88;59.06
51123;BME280;37162;41.724;13.346;2023-09-19T10:40:26;96831.91;;;25.91;59.17
51123;BME280;37162;41.724;13.346;2023-09-19T10:43:01;96816.44;;;25.87;59.22
51123;BME280;37162;41.724;13.346;2023-09-19T10:45:31;96815.81;;;25.95;59.32
51123;BME280;37162;41.724;13.346;2023-09-19T10:47:57;96804.47;;;25.88;59.41
51123;BME280;37162;41.724;13.346;2023-09-19T10:50:23;96813.59;;;25.97;59.27
51123;BME280;37162;41.724;13.346;2023-09-19T10:52:50;96810.06;;;25.96;59.32
51123;BME280;37162;41.724;13.346;2023-09-19T10:55:25;96803.00;;;25.95;59.30
51123;BME280;37162;41.724;13.346;2023-09-19T10:57:53;96819.34;;;25.95;59.41
51123;BME280;37162;41.724;13.346;2023-09-19T11:00:19;96821.25;;;25.95;59.65
51123;BME280;37162;41.724;13.346;2023-09-19T11:03:16;96807.63;;;25.95;59.62
51123;BME280;37162;41.724;13.346;2023-09-19T11:06:17;96810.34;;;25.95;59.52
51123;BME280;37162;41.724;13.346;2023-09-19T11:30:51;96775.66;;;26.06;59.23
51123;BME280;37162;41.724;13.346;2023-09-19T11:36:02;96763.94;;;26.05;58.78
51123;BME280;37162;41.724;13.346;2023-09-19T11:46:55;96772.91;;;26.06;59.04
51123;BME280;37162;41.724;13.346;2023-09-19T11:49:29;96784.94;;;26.05;58.99
51123;BME280;37162;41.724;13.346;2023-09-19T11:51:56;96773.53;;;26.03;59.38
51123;BME280;37162;41.724;13.346;2023-09-19T11:54:22;96780.59;;;26.04;59.21
51123;BME280;37162;41.724;13.346;2023-09-19T11:56:53;96771.88;;;26.02;59.28
51123;BME280;37162;41.724;13.346;2023-09-19T11:59:30;96764.53;;;26.02;59.26
51123;BME280;37162;41.724;13.346;2023-09-19T12:02:04;96756.38;;;26.02;59.18
51123;BME280;37162;41.724;13.346;2023-09-19T12:04:39;96753.34;;;26.04;59.19
51123;BME280;37162;41.724;13.346;2023-09-19T12:07:07;96755.28;;;26.03;59.19
51123;BME280;37162;41.724;13.346;2023-09-19T12:09:39;96733.63;;;25.93;58.90
51123;BME280;37162;41.724;13.346;2023-09-19T12:12:18;96746.00;;;26.04;59.04
51123;BME280;37162;41.724;13.346;2023-09-19T12:14:48;96748.41;;;26.06;59.02
51123;BME280;37162;41.724;13.346;2023-09-19T12:17:14;96738.34;;;26.06;58.12
51123;BME280;37162;41.724;13.346;2023-09-19T12:19:50;96750.56;;;26.09;57.37
51123;BME280;37162;41.724;13.346;2023-09-19T12:22:16;96743.75;;;26.11;57.91
51123;BME280;37162;41.724;13.346;2023-09-19T12:24:43;96748.06;;;26.12;58.68
51123;BME280;37162;41.724;13.346;2023-09-19T12:27:09;96743.94;;;26.15;58.51
51123;BME280;37162;41.724;13.346;2023-09-19T12:29:57;96743.13;;;26.14;58.34
51123;BME280;37162;41.724;13.346;2023-09-19T12:32:37;96739.09;;;26.12;58.47
51123;BME280;37162;41.724;13.346;2023-09-19T12:35:08;96748.94;;;26.08;58.76
51123;BME280;37162;41.724;13.346;2023-09-19T12:37:37;96741.28;;;26.10;58.12
51123;BME280;37162;41.724;13.346;2023-09-19T12:40:07;96739.66;;;26.09;58.61
51123;BME280;37162;41.724;13.346;2023-09-19T12:42:54;96736.16;;;26.08;58.39
51123;BME280;37162;41.724;13.346;2023-09-19T12:45:30;96735.91;;;26.05;58.59
51123;BME280;37162;41.724;13.346;2023-09-19T12:48:21;96741.13;;;26.01;58.44
51123;BME280;37162;41.724;13.346;2023-09-19T12:51:07;96737.09;;;25.98;58.07
51123;BME280;37162;41.724;13.346;2023-09-19T12:53:37;96728.91;;;25.98;58.62
51123;BME280;37162;41.724;13.346;2023-09-19T12:56:08;96730.31;;;25.96;58.75
51123;BME280;37162;41.724;13.346;2023-09-19T12:58:55;96726.25;;;25.93;58.41
51123;BME280;37162;41.724;13.346;2023-09-19T13:01:22;96728.44;;;25.91;58.64
51123;BME280;37162;41.724;13.346;2023-09-19T13:06:38;96731.25;;;25.86;59.06
51123;BME280;37162;41.724;13.346;2023-09-19T13:09:09;96722.56;;;25.84;58.94
51123;BME280;37162;41.724;13.346;2023-09-19T13:11:38;96726.66;;;25.82;58.02
51123;BME280;37162;41.724;13.346;2023-09-19T13:14:22;96726.41;;;25.83;58.98
51123;BME280;37162;41.724;13.346;2023-09-19T13:17:08;96729.38;;;25.82;58.58
51123;BME280;37162;41.724;13.346;2023-09-19T13:19:41;96730.00;;;25.79;59.10
51123;BME280;37162;41.724;13.346;2023-09-19T13:25:04;96736.81;;;25.76;59.31
51123;BME280;37162;41.724;13.346;2023-09-19T13:27:29;96730.84;;;25.74;59.50
51123;BME280;37162;41.724;13.346;2023-09-19T13:29:55;96722.66;;;25.74;57.85
51123;BME280;37162;41.724;13.346;2023-09-19T13:32:20;96721.00;;;25.78;59.22
51123;BME280;37162;41.724;13.346;2023-09-19T13:34:45;96715.84;;;25.77;59.31
51123;BME280;37162;41.724;13.346;2023-09-19T13:37:11;96718.03;;;25.74;59.43
51123;BME280;37162;41.724;13.346;2023-09-19T13:39:38;96724.56;;;25.73;59.43
51123;BME280;37162;41.724;13.346;2023-09-19T13:42:08;96706.16;;;25.65;59.69
51123;BME280;37162;41.724;13.346;2023-09-19T13:44:37;96713.47;;;25.70;59.60
51123;BME280;37162;41.724;13.346;2023-09-19T13:47:03;96707.47;;;25.68;59.64
51123;BME280;37162;41.724;13.346;2023-09-19T13:49:35;96707.78;;;25.66;59.74
51123;BME280;37162;41.724;13.346;2023-09-19T13:52:01;96702.63;;;25.65;59.91
51123;BME280;37162;41.724;13.346;2023-09-19T13:54:29;96701.84;;;25.64;59.68